sensor_id;sensor_type;location;lat;lon;timestamp;temperature;humidity
3288;DHT22;3260;52.438;13.502;2022-10-16T04:02:51;15.60;41.10
3288;DHT22;3260;52.438;13.502;2022-10-16T04:05:19;15.60;42.50
3288;DHT22;3260;52.438;13.502;2022-10-16T04:07:47;15.60;48.00
3288;DHT22;3260;52.438;13.502;2022-10-16T04:10:15;15.50;50.40
3288;DHT22;3260;52.438;13.502;2022-10-16T04:12:43;15.50;53.30
3288;DHT22;3260;52.438;13.502;2022-10-16T04:15:11;15.50;55.50
3288;DHT22;3260;52.438;13.502;2022-10-16T04:17:40;15.50;57.70
3288;DHT22;3260;52.438;13.502;2022-10-16T04:20:09;15.50;59.40
3288;DHT22;3260;52.438;13.502;2022-10-16T04:22:37;15.60;60.90
3288;DHT22;3260;52.438;13.502;2022-10-16T04:25:05;15.50;60.70
3288;DHT22;3260;52.438;13.502;2022-10-16T04:27:34;15.50;61.40
3288;DHT22;3260;52.438;13.502;2022-10-16T04:30:03;15.50;61.70
3288;DHT22;3260;52.438;13.502;2022-10-16T04:32:31;15.50;60.50
3288;DHT22;3260;52.438;13.502;2022-10-16T04:35:01;15.50;58.70
3288;DHT22;3260;52.438;13.502;2022-10-16T04:37:29;15.50;58.90
3288;DHT22;3260;52.438;13.502;2022-10-16T04:39:57;15.50;56.60
3288;DHT22;3260;52.438;13.502;2022-10-16T04:42:25;15.50;53.80
3288;DHT22;3260;52.438;13.502;2022-10-16T04:44:53;15.50;52.80
3288;DHT22;3260;52.438;13.502;2022-10-16T04:47:21;15.50;51.50
3288;DHT22;3260;52.438;13.502;2022-10-16T04:49:49;15.50;47.60
3288;DHT22;3260;52.438;13.502;2022-10-16T04:52:19;15.50;45.60
3288;DHT22;3260;52.438;13.502;2022-10-16T04:54:48;15.50;43.80
3288;DHT22;3260;52.438;13.502;2022-10-16T04:57:17;15.50;41.30
3288;DHT22;3260;52.438;13.502;2022-10-16T04:59:45;15.40;43.60
3288;DHT22;3260;52.438;13.502;2022-10-16T05:02:13;15.50;46.90
3288;DHT22;3260;52.438;13.502;2022-10-16T05:04:41;15.40;49.10
3288;DHT22;3260;52.438;13.502;2022-10-16T05:07:09;15.40;51.80
3288;DHT22;3260;52.438;13.502;2022-10-16T05:09:38;15.40;52.60
3288;DHT22;3260;52.438;13.502;2022-10-16T05:12:06;15.30;53.80
3288;DHT22;3260;52.438;13.502;2022-10-16T05:14:35;15.30;52.10
3288;DHT22;3260;52.438;13.502;2022-10-16T05:17:03;15.30;53.10
3288;DHT22;3260;52.438;13.502;2022-10-16T05:19:31;15.30;54.10
3288;DHT22;3260;52.438;13.502;2022-10-16T05:21:59;15.30;56.20
3288;DHT22;3260;52.438;13.502;2022-10-16T05:24:27;15.30;58.30
3288;DHT22;3260;52.438;13.502;2022-10-16T05:26:56;15.30;60.30
3288;DHT22;3260;52.438;13.502;2022-10-16T05:29:24;15.20;63.00
3288;DHT22;3260;52.438;13.502;2022-10-16T05:31:53;15.20;65.10
3288;DHT22;3260;52.438;13.502;2022-10-16T05:34:21;15.20;68.50
3288;DHT22;3260;52.438;13.502;2022-10-16T05:36:49;15.20;71.40
3288;DHT22;3260;52.438;13.502;2022-10-16T05:39:17;15.10;78.80
3288;DHT22;3260;52.438;13.502;2022-10-16T05:41:45;15.10;82.80
3288;DHT22;3260;52.438;13.502;2022-10-16T05:44:15;15.10;85.80
3288;DHT22;3260;52.438;13.502;2022-10-16T05:46:43;15.10;89.00
3288;DHT22;3260;52.438;13.502;2022-10-16T05:49:14;15.10;90.60
3288;DHT22;3260;52.438;13.502;2022-10-16T05:51:42;15.10;91.00
3288;DHT22;3260;52.438;13.502;2022-10-16T05:54:10;15.20;91.10
3288;DHT22;3260;52.438;13.502;2022-10-16T05:56:38;15.20;90.70
3288;DHT22;3260;52.438;13.502;2022-10-16T05:59:06;15.20;90.10
3288;DHT22;3260;52.438;13.502;2022-10-16T06:01:35;15.20;90.10
3288;DHT22;3260;52.438;13.502;2022-10-16T06:04:03;15.30;86.50
3288;DHT22;3260;52.438;13.502;2022-10-16T06:06:31;15.30;83.50
3288;DHT22;3260;52.438;13.502;2022-10-16T06:08:59;15.30;81.30
3288;DHT22;3260;52.438;13.502;2022-10-16T06:11:29;15.20;79.70
3288;DHT22;3260;52.438;13.502;2022-10-16T06:14:00;15.20;81.90
3288;DHT22;3260;52.438;13.502;2022-10-16T06:16:36;15.30;84.40
3288;DHT22;3260;52.438;13.502;2022-10-16T06:19:05;15.30;86.10
3288;DHT22;3260;52.438;13.502;2022-10-16T06:21:35;15.40;87.20
3288;DHT22;3260;52.438;13.502;2022-10-16T06:24:03;15.40;86.40
3288;DHT22;3260;52.438;13.502;2022-10-16T06:26:31;15.50;83.40
3288;DHT22;3260;52.438;13.502;2022-10-16T06:29:00;15.60;78.20
3288;DHT22;3260;52.438;13.502;2022-10-16T06:31:28;15.60;76.10
3288;DHT22;3260;52.438;13.502;2022-10-16T06:34:00;15.70;69.40
3288;DHT22;3260;52.438;13.502;2022-10-16T06:36:28;15.80;67.90
3288;DHT22;3260;52.438;13.502;2022-10-16T06:38:56;15.90;61.40
3288;DHT22;3260;52.438;13.502;2022-10-16T06:41:24;15.90;51.60
3288;DHT22;3260;52.438;13.502;2022-10-16T06:43:52;16.00;41.80
3288;DHT22;3260;52.438;13.502;2022-10-16T06:46:22;16.10;39.60
3288;DHT22;3260;52.438;13.502;2022-10-16T06:48:52;16.20;34.10
3288;DHT22;3260;52.438;13.502;2022-10-16T06:51:23;16.30;27.80
3288;DHT22;3260;52.438;13.502;2022-10-16T06:53:54;16.30;22.10
3288;DHT22;3260;52.438;13.502;2022-10-16T06:56:30;16.40;17.40
3288;DHT22;3260;52.438;13.502;2022-10-16T06:58:59;16.50;12.30
3288;DHT22;3260;52.438;13.502;2022-10-16T07:01:28;16.50;9.20
3288;DHT22;3260;52.438;13.502;2022-10-16T07:03:56;16.60;4.80
3288;DHT22;3260;52.438;13.502;2022-10-16T07:06:26;16.70;1.00
3288;DHT22;3260;52.438;13.502;2022-10-16T07:08:54;16.70;1.00
3288;DHT22;3260;52.438;13.502;2022-10-16T07:11:23;16.70;1.00
3288;DHT22;3260;52.438;13.502;2022-10-16T07:13:51;16.80;1.00
3288;DHT22;3260;52.438;13.502;2022-10-16T07:16:24;17.00;1.00
3288;DHT22;3260;52.438;13.502;2022-10-16T07:18:54;17.20;1.00
3288;DHT22;3260;52.438;13.502;2022-10-16T07:21:28;17.50;1.00
3288;DHT22;3260;52.438;13.502;2022-10-16T07:23:59;17.80;1.00
3288;DHT22;3260;52.438;13.502;2022-10-16T07:26:30;18.10;1.00
3288;DHT22;3260;52.438;13.502;2022-10-16T07:29:00;18.30;1.00
3288;DHT22;3260;52.438;13.502;2022-10-16T07:31:30;18.50;1.00
3288;DHT22;3260;52.438;13.502;2022-10-16T07:33:59;18.70;1.00
3288;DHT22;3260;52.438;13.502;2022-10-16T07:36:29;18.80;1.00
3288;DHT22;3260;52.438;13.502;2022-10-16T07:38:57;19.10;1.00
3288;DHT22;3260;52.438;13.502;2022-10-16T07:41:26;19.20;1.00
3288;DHT22;3260;52.438;13.502;2022-10-16T07:43:56;19.30;1.00
3288;DHT22;3260;52.438;13.502;2022-10-16T07:46:27;19.40;1.00
3288;DHT22;3260;52.438;13.502;2022-10-16T07:48:55;19.30;1.00
3288;DHT22;3260;52.438;13.502;2022-10-16T07:51:24;19.10;1.00
3288;DHT22;3260;52.438;13.502;2022-10-16T07:53:54;19.10;1.00
3288;DHT22;3260;52.438;13.502;2022-10-16T07:56:23;19.00;1.00
3288;DHT22;3260;52.438;13.502;2022-10-16T07:58:51;18.90;1.00
3288;DHT22;3260;52.438;13.502;2022-10-16T08:01:20;18.80;1.00
3288;DHT22;3260;52.438;13.502;2022-10-16T08:03:50;18.80;1.00
3288;DHT22;3260;52.438;13.502;2022-10-16T08:06:20;18.70;1.00
3288;DHT22;3260;52.438;13.502;2022-10-16T08:08:55;18.70;1.00
3288;DHT22;3260;52.438;13.502;2022-10-16T08:11:23;18.80;1.00
3288;DHT22;3260;52.438;13.502;2022-10-16T08:13:51;18.80;1.00
3288;DHT22;3260;52.438;13.502;2022-10-16T08:16:19;18.90;1.00
3288;DHT22;3260;52.438;13.502;2022-10-16T08:18:49;19.00;1.00
3288;DHT22;3260;52.438;13.502;2022-10-16T08:21:19;19.00;1.00
3288;DHT22;3260;52.438;13.502;2022-10-16T08:23:51;19.10;1.00
3288;DHT22;3260;52.438;13.502;2022-10-16T08:26:26;19.10;1.00
3288;DHT22;3260;52.438;13.502;2022-10-16T08:28:55;19.20;1.00
3288;DHT22;3260;52.438;13.502;2022-10-16T08:31:23;19.30;1.00
3288;DHT22;3260;52.438;13.502;2022-10-16T08:33:52;19.40;1.00
3288;DHT22;3260;52.438;13.502;2022-10-16T08:36:20;19.60;1.00
3288;DHT22;3260;52.438;13.502;2022-10-16T08:38:49;19.70;1.00
3288;DHT22;3260;52.438;13.502;2022-10-16T08:41:50;19.80;1.00
3288;DHT22;3260;52.438;13.502;2022-10-16T08:44:51;20.00;1.00
3288;DHT22;3260;52.438;13.502;2022-10-16T08:47:41;20.10;1.00
3288;DHT22;3260;52.438;13.502;2022-10-16T08:50:14;20.10;1.00
3288;DHT22;3260;52.438;13.502;2022-10-16T08:52:49;20.20;1.00
3288;DHT22;3260;52.438;13.502;2022-10-16T08:55:29;20.00;1.00
3288;DHT22;3260;52.438;13.502;2022-10-16T08:58:11;19.90;1.00
3288;DHT22;3260;52.438;13.502;2022-10-16T09:00:42;19.80;1.00
3288;DHT22;3260;52.438;13.502;2022-10-16T09:03:17;19.70;1.00
3288;DHT22;3260;52.438;13.502;2022-10-16T09:06:10;19.60;1.00
3288;DHT22;3260;52.438;13.502;2022-10-16T09:08:54;19.60;1.00
3288;DHT22;3260;52.438;13.502;2022-10-16T09:11:41;19.60;1.00
3288;DHT22;3260;52.438;13.502;2022-10-16T09:14:29;19.70;1.00
3288;DHT22;3260;52.438;13.502;2022-10-16T09:17:16;19.70;1.00
3288;DHT22;3260;52.438;13.502;2022-10-16T09:20:13;19.90;1.00
3288;DHT22;3260;52.438;13.502;2022-10-16T09:22:53;20.10;1.00
3288;DHT22;3260;52.438;13.502;2022-10-16T09:25:28;20.30;1.00
3288;DHT22;3260;52.438;13.502;2022-10-16T09:27:56;20.50;1.00
3288;DHT22;3260;52.438;13.502;2022-10-16T09:30:27;20.70;1.00
3288;DHT22;3260;52.438;13.502;2022-10-16T09:32:58;20.80;1.00
3288;DHT22;3260;52.438;13.502;2022-10-16T09:35:32;20.80;1.00
3288;DHT22;3260;52.438;13.502;2022-10-16T09:38:04;20.60;1.00
3288;DHT22;3260;52.438;13.502;2022-10-16T09:40:34;20.60;1.00
3288;DHT22;3260;52.438;13.502;2022-10-16T09:43:16;20.70;1.00
3288;DHT22;3260;52.438;13.502;2022-10-16T09:45:58;20.80;1.00
3288;DHT22;3260;52.438;13.502;2022-10-16T09:48:33;20.70;1.00
3288;DHT22;3260;52.438;13.502;2022-10-16T09:51:13;20.60;1.00
3288;DHT22;3260;52.438;13.502;2022-10-16T09:53:47;20.70;1.00
3288;DHT22;3260;52.438;13.502;2022-10-16T09:56:22;20.90;1.00
3288;DHT22;3260;52.438;13.502;2022-10-16T09:58:52;21.00;1.00
3288;DHT22;3260;52.438;13.502;2022-10-16T10:01:27;21.00;1.00
3288;DHT22;3260;52.438;13.502;2022-10-16T10:03:58;20.90;1.00
3288;DHT22;3260;52.438;13.502;2022-10-16T10:06:29;20.90;1.00
3288;DHT22;3260;52.438;13.502;2022-10-16T10:09:04;20.80;1.00
3288;DHT22;3260;52.438;13.502;2022-10-16T10:11:52;20.90;1.00
3288;DHT22;3260;52.438;13.502;2022-10-16T10:14:24;21.20;1.00
3288;DHT22;3260;52.438;13.502;2022-10-16T10:17:21;21.50;1.00
3288;DHT22;3260;52.438;13.502;2022-10-16T10:19:52;21.80;1.00
3288;DHT22;3260;52.438;13.502;2022-10-16T10:22:27;22.00;1.00
3288;DHT22;3260;52.438;13.502;2022-10-16T10:25:12;22.00;1.00
3288;DHT22;3260;52.438;13.502;2022-10-16T10:30:58;21.90;1.00
3288;DHT22;3260;52.438;13.502;2022-10-16T10:33:46;22.00;1.00
3288;DHT22;3260;52.438;13.502;2022-10-16T10:36:28;22.00;1.00
3288;DHT22;3260;52.438;13.502;2022-10-16T10:39:01;22.00;1.00
3288;DHT22;3260;52.438;13.502;2022-10-16T10:44:55;22.20;1.00
3288;DHT22;3260;52.438;13.502;2022-10-16T10:47:38;22.10;1.00
3288;DHT22;3260;52.438;13.502;2022-10-16T10:50:18;22.00;1.00
3288;DHT22;3260;52.438;13.502;2022-10-16T10:52:59;22.10;1.00
3288;DHT22;3260;52.438;13.502;2022-10-16T10:55:39;22.20;1.00
3288;DHT22;3260;52.438;13.502;2022-10-16T10:58:35;22.20;1.00
3288;DHT22;3260;52.438;13.502;2022-10-16T11:01:17;22.50;1.00
3288;DHT22;3260;52.438;13.502;2022-10-16T11:07:16;23.30;1.00
3288;DHT22;3260;52.438;13.502;2022-10-16T11:09:49;23.20;1.00
3288;DHT22;3260;52.438;13.502;2022-10-16T11:12:23;23.10;1.00
3288;DHT22;3260;52.438;13.502;2022-10-16T11:15:02;22.90;1.00
3288;DHT22;3260;52.438;13.502;2022-10-16T11:17:38;22.90;1.00
3288;DHT22;3260;52.438;13.502;2022-10-16T11:20:14;23.60;1.00
3288;DHT22;3260;52.438;13.502;2022-10-16T11:22:51;24.70;1.00
3288;DHT22;3260;52.438;13.502;2022-10-16T11:25:26;25.50;1.00
3288;DHT22;3260;52.438;13.502;2022-10-16T11:28:00;25.90;1.00
3288;DHT22;3260;52.438;13.502;2022-10-16T11:30:33;26.30;1.00
3288;DHT22;3260;52.438;13.502;2022-10-16T11:33:22;26.50;1.00
3288;DHT22;3260;52.438;13.502;2022-10-16T11:36:03;26.40;1.00
3288;DHT22;3260;52.438;13.502;2022-10-16T11:38:40;26.10;1.00
3288;DHT22;3260;52.438;13.502;2022-10-16T11:41:19;25.40;1.00
3288;DHT22;3260;52.438;13.502;2022-10-16T11:47:09;24.70;1.00
3288;DHT22;3260;52.438;13.502;2022-10-16T11:50:17;24.70;1.00
3288;DHT22;3260;52.438;13.502;2022-10-16T11:52:55;24.70;1.00
3288;DHT22;3260;52.438;13.502;2022-10-16T11:55:34;25.10;1.00
3288;DHT22;3260;52.438;13.502;2022-10-16T11:58:16;26.40;1.00
3288;DHT22;3260;52.438;13.502;2022-10-16T12:00:58;27.40;1.00
3288;DHT22;3260;52.438;13.502;2022-10-16T12:03:35;28.70;1.00
3288;DHT22;3260;52.438;13.502;2022-10-16T12:06:22;30.00;1.00
3288;DHT22;3260;52.438;13.502;2022-10-16T12:08:59;30.90;1.00
3288;DHT22;3260;52.438;13.502;2022-10-16T12:11:36;31.40;1.00
3288;DHT22;3260;52.438;13.502;2022-10-16T12:14:34;31.20;1.00
3288;DHT22;3260;52.438;13.502;2022-10-16T12:17:34;31.00;1.00
3288;DHT22;3260;52.438;13.502;2022-10-16T12:20:20;30.10;1.00
3288;DHT22;3260;52.438;13.502;2022-10-16T12:22:55;28.00;1.00
3288;DHT22;3260;52.438;13.502;2022-10-16T12:25:27;26.70;1.00
3288;DHT22;3260;52.438;13.502;2022-10-16T12:28:00;26.40;1.00
3288;DHT22;3260;52.438;13.502;2022-10-16T12:30:33;26.90;1.00
3288;DHT22;3260;52.438;13.502;2022-10-16T12:33:04;28.00;1.00
3288;DHT22;3260;52.438;13.502;2022-10-16T12:35:42;29.10;1.00
3288;DHT22;3260;52.438;13.502;2022-10-16T12:38:17;30.30;1.00
3288;DHT22;3260;52.438;13.502;2022-10-16T12:40:54;31.00;1.00
3288;DHT22;3260;52.438;13.502;2022-10-16T12:43:38;31.70;1.00
3288;DHT22;3260;52.438;13.502;2022-10-16T12:46:24;32.50;1.00
3288;DHT22;3260;52.438;13.502;2022-10-16T12:49:19;33.30;1.00
3288;DHT22;3260;52.438;13.502;2022-10-16T12:51:51;33.60;1.00
3288;DHT22;3260;52.438;13.502;2022-10-16T12:54:24;33.30;1.00
3288;DHT22;3260;52.438;13.502;2022-10-16T12:57:18;32.10;1.00
3288;DHT22;3260;52.438;13.502;2022-10-16T13:00:12;32.70;1.00
3288;DHT22;3260;52.438;13.502;2022-10-16T13:03:05;33.40;1.00
3288;DHT22;3260;52.438;13.502;2022-10-16T13:06:23;34.30;1.00
3288;DHT22;3260;52.438;13.502;2022-10-16T13:09:09;32.80;1.00
3288;DHT22;3260;52.438;13.502;2022-10-16T13:12:06;32.00;1.00
3288;DHT22;3260;52.438;13.502;2022-10-16T13:15:08;30.90;1.00
3288;DHT22;3260;52.438;13.502;2022-10-16T13:17:53;29.80;1.00
3288;DHT22;3260;52.438;13.502;2022-10-16T13:20:34;28.80;1.00
3288;DHT22;3260;52.438;13.502;2022-10-16T13:23:13;27.90;1.00
3288;DHT22;3260;52.438;13.502;2022-10-16T13:25:57;27.20;1.00
3288;DHT22;3260;52.438;13.502;2022-10-16T13:28:38;26.60;1.00
3288;DHT22;3260;52.438;13.502;2022-10-16T13:31:15;26.20;1.00
3288;DHT22;3260;52.438;13.502;2022-10-16T13:33:49;26.20;1.00
3288;DHT22;3260;52.438;13.502;2022-10-16T13:36:22;26.70;1.00
3288;DHT22;3260;52.438;13.502;2022-10-16T13:39:01;26.20;1.00
3288;DHT22;3260;52.438;13.502;2022-10-16T13:41:38;25.60;1.00
3288;DHT22;3260;52.438;13.502;2022-10-16T13:44:13;25.20;1.00
3288;DHT22;3260;52.438;13.502;2022-10-16T13:46:44;25.10;1.00
3288;DHT22;3260;52.438;13.502;2022-10-16T13:49:14;24.80;1.00
3288;DHT22;3260;52.438;13.502;2022-10-16T13:51:54;25.10;1.00
3288;DHT22;3260;52.438;13.502;2022-10-16T13:54:23;26.10;1.00
3288;DHT22;3260;52.438;13.502;2022-10-16T13:56:53;26.30;1.00
3288;DHT22;3260;52.438;13.502;2022-10-16T13:59:36;26.20;1.00
3288;DHT22;3260;52.438;13.502;2022-10-16T14:02:16;26.10;1.00
3288;DHT22;3260;52.438;13.502;2022-10-16T14:04:49;27.40;1.00
3288;DHT22;3260;52.438;13.502;2022-10-16T14:07:23;28.40;1.00
3288;DHT22;3260;52.438;13.502;2022-10-16T14:09:53;30.50;1.00
3288;DHT22;3260;52.438;13.502;2022-10-16T14:12:23;32.30;1.00
3288;DHT22;3260;52.438;13.502;2022-10-16T14:14:55;32.50;1.00
3288;DHT22;3260;52.438;13.502;2022-10-16T14:17:28;31.00;1.00
3288;DHT22;3260;52.438;13.502;2022-10-16T14:19:59;30.70;1.00
3288;DHT22;3260;52.438;13.502;2022-10-16T14:22:34;30.60;1.00
3288;DHT22;3260;52.438;13.502;2022-10-16T14:25:21;30.50;1.00
3288;DHT22;3260;52.438;13.502;2022-10-16T14:27:58;31.90;1.00
3288;DHT22;3260;52.438;13.502;2022-10-16T14:30:34;33.70;1.00
3288;DHT22;3260;52.438;13.502;2022-10-16T14:33:18;33.40;1.00
3288;DHT22;3260;52.438;13.502;2022-10-16T14:36:01;32.70;1.00
3288;DHT22;3260;52.438;13.502;2022-10-16T14:38:32;32.50;1.00
3288;DHT22;3260;52.438;13.502;2022-10-16T14:41:01;32.80;1.00
3288;DHT22;3260;52.438;13.502;2022-10-16T14:43:33;33.80;1.00
3288;DHT22;3260;52.438;13.502;2022-10-16T14:46:12;35.10;1.00
3288;DHT22;3260;52.438;13.502;2022-10-16T14:48:46;35.90;1.00
3288;DHT22;3260;52.438;13.502;2022-10-16T14:51:17;36.20;1.00
3288;DHT22;3260;52.438;13.502;2022-10-16T14:53:46;36.80;1.00
3288;DHT22;3260;52.438;13.502;2022-10-16T14:56:16;36.20;1.00
3288;DHT22;3260;52.438;13.502;2022-10-16T14:58:47;35.50;1.00
3288;DHT22;3260;52.438;13.502;2022-10-16T15:01:15;35.50;1.00
3288;DHT22;3260;52.438;13.502;2022-10-16T15:03:44;35.50;1.00
3288;DHT22;3260;52.438;13.502;2022-10-16T15:06:14;35.50;1.00
3288;DHT22;3260;52.438;13.502;2022-10-16T15:08:43;35.10;1.00
3288;DHT22;3260;52.438;13.502;2022-10-16T15:11:13;35.10;1.00
3288;DHT22;3260;52.438;13.502;2022-10-16T15:13:43;35.00;1.00
3288;DHT22;3260;52.438;13.502;2022-10-16T15:16:13;34.50;1.00
3288;DHT22;3260;52.438;13.502;2022-10-16T15:18:43;34.20;1.00
3288;DHT22;3260;52.438;13.502;2022-10-16T15:21:21;33.50;1.00
3288;DHT22;3260;52.438;13.502;2022-10-16T15:23:52;32.90;1.00
3288;DHT22;3260;52.438;13.502;2022-10-16T15:26:21;32.70;1.00
3288;DHT22;3260;52.438;13.502;2022-10-16T15:28:49;32.60;1.00
3288;DHT22;3260;52.438;13.502;2022-10-16T15:31:17;32.20;1.00
3288;DHT22;3260;52.438;13.502;2022-10-16T15:33:49;32.10;1.00
3288;DHT22;3260;52.438;13.502;2022-10-16T15:36:27;31.80;1.00
3288;DHT22;3260;52.438;13.502;2022-10-16T15:38:56;30.80;1.00
3288;DHT22;3260;52.438;13.502;2022-10-16T15:41:24;29.70;1.00
3288;DHT22;3260;52.438;13.502;2022-10-16T15:43:52;28.50;1.00
3288;DHT22;3260;52.438;13.502;2022-10-16T15:46:21;27.50;1.00
3288;DHT22;3260;52.438;13.502;2022-10-16T15:48:56;26.40;1.00
3288;DHT22;3260;52.438;13.502;2022-10-16T15:51:26;25.50;1.00
3288;DHT22;3260;52.438;13.502;2022-10-16T15:53:56;24.70;1.00
3288;DHT22;3260;52.438;13.502;2022-10-16T15:56:25;24.00;1.00
3288;DHT22;3260;52.438;13.502;2022-10-16T15:58:55;23.30;1.00
3288;DHT22;3260;52.438;13.502;2022-10-16T16:01:23;22.70;1.00
3288;DHT22;3260;52.438;13.502;2022-10-16T16:03:54;22.00;1.00
3288;DHT22;3260;52.438;13.502;2022-10-16T16:06:22;21.50;1.00
3288;DHT22;3260;52.438;13.502;2022-10-16T16:08:51;21.20;1.00
3288;DHT22;3260;52.438;13.502;2022-10-16T16:11:20;20.90;1.00
3288;DHT22;3260;52.438;13.502;2022-10-16T16:13:50;20.60;1.00
3288;DHT22;3260;52.438;13.502;2022-10-16T16:16:18;20.30;1.00
3288;DHT22;3260;52.438;13.502;2022-10-16T16:18:46;20.00;1.00
3288;DHT22;3260;52.438;13.502;2022-10-16T16:21:17;19.80;1.00
3288;DHT22;3260;52.438;13.502;2022-10-16T16:23:45;19.60;1.00
3288;DHT22;3260;52.438;13.502;2022-10-16T16:26:15;19.50;1.00
3288;DHT22;3260;52.438;13.502;2022-10-16T16:28:50;19.30;1.00
3288;DHT22;3260;52.438;13.502;2022-10-16T16:31:18;19.10;1.00
3288;DHT22;3260;52.438;13.502;2022-10-16T16:33:47;18.90;1.00
3288;DHT22;3260;52.438;13.502;2022-10-16T16:36:19;18.80;1.00
3288;DHT22;3260;52.438;13.502;2022-10-16T16:38:52;18.60;1.00
3288;DHT22;3260;52.438;13.502;2022-10-16T16:41:24;18.40;1.00
3288;DHT22;3260;52.438;13.502;2022-10-16T16:43:54;18.30;1.00
3288;DHT22;3260;52.438;13.502;2022-10-16T16:46:22;18.10;1.00
3288;DHT22;3260;52.438;13.502;2022-10-16T16:48:50;18.00;1.00
3288;DHT22;3260;52.438;13.502;2022-10-16T16:51:22;17.90;1.00
3288;DHT22;3260;52.438;13.502;2022-10-16T16:53:52;17.70;1.00
3288;DHT22;3260;52.438;13.502;2022-10-16T16:56:22;17.60;1.00
3288;DHT22;3260;52.438;13.502;2022-10-16T16:58:52;17.60;1.00
3288;DHT22;3260;52.438;13.502;2022-10-16T17:01:23;17.50;1.00
3288;DHT22;3260;52.438;13.502;2022-10-16T17:03:54;17.40;1.00
3288;DHT22;3260;52.438;13.502;2022-10-16T17:06:27;17.30;1.00
3288;DHT22;3260;52.438;13.502;2022-10-16T17:08:57;17.20;1.00
3288;DHT22;3260;52.438;13.502;2022-10-16T17:11:26;17.10;1.00
3288;DHT22;3260;52.438;13.502;2022-10-16T17:13:56;17.10;1.00
3288;DHT22;3260;52.438;13.502;2022-10-16T17:16:28;17.00;1.00
3288;DHT22;3260;52.438;13.502;2022-10-16T17:19:01;16.90;1.00
3288;DHT22;3260;52.438;13.502;2022-10-16T17:21:34;16.80;1.00
3288;DHT22;3260;52.438;13.502;2022-10-16T17:24:03;16.70;1.00
3288;DHT22;3260;52.438;13.502;2022-10-16T17:26:32;16.60;1.00
3288;DHT22;3260;52.438;13.502;2022-10-16T17:29:04;16.60;1.00
3288;DHT22;3260;52.438;13.502;2022-10-16T17:31:34;16.50;1.00
3288;DHT22;3260;52.438;13.502;2022-10-16T17:34:05;16.40;1.00
3288;DHT22;3260;52.438;13.502;2022-10-16T17:36:38;16.40;1.00
3288;DHT22;3260;52.438;13.502;2022-10-16T17:39:11;16.30;1.00
3288;DHT22;3260;52.438;13.502;2022-10-16T17:41:43;16.30;1.00
3288;DHT22;3260;52.438;13.502;2022-10-16T17:44:12;16.20;1.00
3288;DHT22;3260;52.438;13.502;2022-10-16T17:46:46;16.10;1.00
3288;DHT22;3260;52.438;13.502;2022-10-16T17:49:14;16.10;1.00
3288;DHT22;3260;52.438;13.502;2022-10-16T17:51:44;16.00;1.00
3288;DHT22;3260;52.438;13.502;2022-10-16T17:54:13;16.00;1.00
3288;DHT22;3260;52.438;13.502;2022-10-16T17:56:41;15.90;1.00
3288;DHT22;3260;52.438;13.502;2022-10-16T17:59:11;15.80;1.00
3288;DHT22;3260;52.438;13.502;2022-10-16T18:01:39;15.80;1.00
3288;DHT22;3260;52.438;13.502;2022-10-16T18:04:14;15.70;1.00
3288;DHT22;3260;52.438;13.502;2022-10-16T18:06:45;15.70;1.00
3288;DHT22;3260;52.438;13.502;2022-10-16T18:09:15;15.70;1.00
3288;DHT22;3260;52.438;13.502;2022-10-16T18:11:45;15.60;1.00
3288;DHT22;3260;52.438;13.502;2022-10-16T18:14:16;15.50;1.00
3288;DHT22;3260;52.438;13.502;2022-10-16T18:16:44;15.50;1.00
3288;DHT22;3260;52.438;13.502;2022-10-16T18:19:13;15.40;1.00
3288;DHT22;3260;52.438;13.502;2022-10-16T18:21:41;15.40;1.00
3288;DHT22;3260;52.438;13.502;2022-10-16T18:24:11;15.10;1.00
3288;DHT22;3260;52.438;13.502;2022-10-16T18:26:39;15.30;1.00
3288;DHT22;3260;52.438;13.502;2022-10-16T18:29:08;15.30;1.00
3288;DHT22;3260;52.438;13.502;2022-10-16T18:31:37;15.20;1.00
3288;DHT22;3260;52.438;13.502;2022-10-16T18:34:08;15.20;1.00
3288;DHT22;3260;52.438;13.502;2022-10-16T18:36:37;15.20;1.00
3288;DHT22;3260;52.438;13.502;2022-10-16T18:39:06;15.10;1.00
3288;DHT22;3260;52.438;13.502;2022-10-16T18:41:38;15.10;1.00
3288;DHT22;3260;52.438;13.502;2022-10-16T18:44:08;15.10;1.00
3288;DHT22;3260;52.438;13.502;2022-10-16T18:46:36;15.00;1.00
3288;DHT22;3260;52.438;13.502;2022-10-16T18:49:04;15.00;1.00
3288;DHT22;3260;52.438;13.502;2022-10-16T18:51:35;15.00;1.00
3288;DHT22;3260;52.438;13.502;2022-10-16T18:54:07;14.90;1.00
3288;DHT22;3260;52.438;13.502;2022-10-16T18:56:38;14.90;1.00
3288;DHT22;3260;52.438;13.502;2022-10-16T18:59:07;14.90;1.00
3288;DHT22;3260;52.438;13.502;2022-10-16T19:01:36;14.90;1.00
3288;DHT22;3260;52.438;13.502;2022-10-16T19:04:08;14.80;1.00
3288;DHT22;3260;52.438;13.502;2022-10-16T19:06:40;14.80;1.00
3288;DHT22;3260;52.438;13.502;2022-10-16T19:09:10;14.80;1.00
3288;DHT22;3260;52.438;13.502;2022-10-16T19:11:41;14.70;1.00
3288;DHT22;3260;52.438;13.502;2022-10-16T19:14:10;14.70;1.00
3288;DHT22;3260;52.438;13.502;2022-10-16T19:16:40;14.70;1.00
3288;DHT22;3260;52.438;13.502;2022-10-16T19:19:11;14.70;1.00
3288;DHT22;3260;52.438;13.502;2022-10-16T19:21:40;14.70;1.00
3288;DHT22;3260;52.438;13.502;2022-10-16T19:24:11;14.70;1.00
3288;DHT22;3260;52.438;13.502;2022-10-16T19:26:43;14.60;1.00
3288;DHT22;3260;52.438;13.502;2022-10-16T19:29:11;14.60;1.00
3288;DHT22;3260;52.438;13.502;2022-10-16T19:31:39;14.60;1.00
3288;DHT22;3260;52.438;13.502;2022-10-16T19:34:09;14.60;1.00
3288;DHT22;3260;52.438;13.502;2022-10-16T19:36:38;14.60;1.00
3288;DHT22;3260;52.438;13.502;2022-10-16T19:39:10;14.60;1.00
3288;DHT22;3260;52.438;13.502;2022-10-16T19:41:40;14.50;1.00
3288;DHT22;3260;52.438;13.502;2022-10-16T19:44:12;14.60;1.00
3288;DHT22;3260;52.438;13.502;2022-10-16T19:46:43;14.60;1.00
3288;DHT22;3260;52.438;13.502;2022-10-16T19:49:13;14.50;1.00
3288;DHT22;3260;52.438;13.502;2022-10-16T19:51:45;14.50;1.00
3288;DHT22;3260;52.438;13.502;2022-10-16T19:54:14;14.50;1.00
3288;DHT22;3260;52.438;13.502;2022-10-16T19:56:43;14.50;1.00
3288;DHT22;3260;52.438;13.502;2022-10-16T19:59:12;14.50;1.00
3288;DHT22;3260;52.438;13.502;2022-10-16T20:01:44;14.50;1.00
3288;DHT22;3260;52.438;13.502;2022-10-16T20:04:13;14.40;1.00
3288;DHT22;3260;52.438;13.502;2022-10-16T20:06:42;14.40;1.00
3288;DHT22;3260;52.438;13.502;2022-10-16T20:09:10;14.40;1.00
3288;DHT22;3260;52.438;13.502;2022-10-16T20:11:38;14.30;1.00
3288;DHT22;3260;52.438;13.502;2022-10-16T20:14:06;14.30;1.00
3288;DHT22;3260;52.438;13.502;2022-10-16T20:16:36;14.30;1.00
3288;DHT22;3260;52.438;13.502;2022-10-16T20:19:05;14.20;1.00
3288;DHT22;3260;52.438;13.502;2022-10-16T20:21:34;14.20;1.00
3288;DHT22;3260;52.438;13.502;2022-10-16T20:24:03;14.10;1.00
3288;DHT22;3260;52.438;13.502;2022-10-16T20:26:32;14.10;1.00
3288;DHT22;3260;52.438;13.502;2022-10-16T20:29:02;14.00;1.00
3288;DHT22;3260;52.438;13.502;2022-10-16T20:31:32;14.00;1.00
3288;DHT22;3260;52.438;13.502;2022-10-16T20:34:03;14.00;1.00
3288;DHT22;3260;52.438;13.502;2022-10-16T20:36:34;14.00;1.00
3288;DHT22;3260;52.438;13.502;2022-10-16T20:39:03;13.90;1.00
3288;DHT22;3260;52.438;13.502;2022-10-16T20:41:33;13.90;1.00
3288;DHT22;3260;52.438;13.502;2022-10-16T20:44:02;13.90;1.00
3288;DHT22;3260;52.438;13.502;2022-10-16T20:46:31;13.90;1.00
3288;DHT22;3260;52.438;13.502;2022-10-16T20:48:59;13.80;1.00
3288;DHT22;3260;52.438;13.502;2022-10-16T20:51:43;13.80;1.00